sensor_id;sensor_type;location;lat;lon;timestamp;temperature;humidity
36322;DHT22;23564;48.290;11.460;2024-02-28T00:01:52;5.90;72.20
36322;DHT22;23564;48.290;11.460;2024-02-28T00:04:18;6.00;70.50
36322;DHT22;23564;48.290;11.460;2024-02-28T00:06:44;6.00;71.60
36322;DHT22;23564;48.290;11.460;2024-02-28T00:09:11;6.00;70.90
36322;DHT22;23564;48.290;11.460;2024-02-28T00:11:42;6.00;69.30
36322;DHT22;23564;48.290;11.460;2024-02-28T00:14:08;6.10;66.90
36322;DHT22;23564;48.290;11.460;2024-02-28T00:16:34;6.10;67.10
36322;DHT22;23564;48.290;11.460;2024-02-28T00:19:00;6.10;64.20
36322;DHT22;23564;48.290;11.460;2024-02-28T00:21:25;6.10;61.10
36322;DHT22;23564;48.290;11.460;2024-02-28T00:23:51;6.10;59.50
36322;DHT22;23564;48.290;11.460;2024-02-28T00:26:17;6.00;59.20
36322;DHT22;23564;48.290;11.460;2024-02-28T00:28:42;6.00;60.20
36322;DHT22;23564;48.290;11.460;2024-02-28T00:31:08;5.90;63.40
36322;DHT22;23564;48.290;11.460;2024-02-28T00:33:33;5.90;66.70
36322;DHT22;23564;48.290;11.460;2024-02-28T00:35:59;5.80;66.70
36322;DHT22;23564;48.290;11.460;2024-02-28T00:38:24;5.80;67.90
36322;DHT22;23564;48.290;11.460;2024-02-28T00:40:50;5.90;68.60
36322;DHT22;23564;48.290;11.460;2024-02-28T00:43:15;5.90;67.50
36322;DHT22;23564;48.290;11.460;2024-02-28T00:45:41;5.90;67.30
36322;DHT22;23564;48.290;11.460;2024-02-28T00:48:07;5.90;68.30
36322;DHT22;23564;48.290;11.460;2024-02-28T00:50:32;5.90;66.70
36322;DHT22;23564;48.290;11.460;2024-02-28T00:52:58;5.90;66.70
36322;DHT22;23564;48.290;11.460;2024-02-28T00:55:23;5.90;65.60
36322;DHT22;23564;48.290;11.460;2024-02-28T00:57:49;5.90;65.10
36322;DHT22;23564;48.290;11.460;2024-02-28T01:00:15;5.80;64.60
36322;DHT22;23564;48.290;11.460;2024-02-28T01:02:40;5.90;67.10
36322;DHT22;23564;48.290;11.460;2024-02-28T01:05:09;5.80;67.00
36322;DHT22;23564;48.290;11.460;2024-02-28T01:07:35;5.80;68.40
36322;DHT22;23564;48.290;11.460;2024-02-28T01:10:00;5.90;68.80
36322;DHT22;23564;48.290;11.460;2024-02-28T01:12:26;5.80;68.70
36322;DHT22;23564;48.290;11.460;2024-02-28T01:14:51;5.80;66.10
36322;DHT22;23564;48.290;11.460;2024-02-28T01:17:17;5.90;67.60
36322;DHT22;23564;48.290;11.460;2024-02-28T01:19:42;5.90;67.20
36322;DHT22;23564;48.290;11.460;2024-02-28T01:22:08;5.90;67.30
36322;DHT22;23564;48.290;11.460;2024-02-28T01:24:34;5.90;66.20
36322;DHT22;23564;48.290;11.460;2024-02-28T01:27:00;5.90;63.70
36322;DHT22;23564;48.290;11.460;2024-02-28T01:29:25;5.90;62.60
36322;DHT22;23564;48.290;11.460;2024-02-28T01:31:51;5.90;61.50
36322;DHT22;23564;48.290;11.460;2024-02-28T01:34:17;5.90;64.50
36322;DHT22;23564;48.290;11.460;2024-02-28T01:36:42;5.90;63.20
36322;DHT22;23564;48.290;11.460;2024-02-28T01:39:08;5.90;62.10
36322;DHT22;23564;48.290;11.460;2024-02-28T01:41:34;5.90;62.00
36322;DHT22;23564;48.290;11.460;2024-02-28T01:43:59;5.90;61.00
36322;DHT22;23564;48.290;11.460;2024-02-28T01:46:29;5.90;59.40
36322;DHT22;23564;48.290;11.460;2024-02-28T01:48:55;5.90;54.70
36322;DHT22;23564;48.290;11.460;2024-02-28T01:51:23;5.90;57.50
36322;DHT22;23564;48.290;11.460;2024-02-28T01:53:50;5.90;57.30
36322;DHT22;23564;48.290;11.460;2024-02-28T01:56:16;5.90;59.30
36322;DHT22;23564;48.290;11.460;2024-02-28T01:58:45;5.90;58.50
36322;DHT22;23564;48.290;11.460;2024-02-28T02:01:13;5.80;59.00
36322;DHT22;23564;48.290;11.460;2024-02-28T02:03:40;5.80;61.20
36322;DHT22;23564;48.290;11.460;2024-02-28T02:06:05;5.70;60.60
36322;DHT22;23564;48.290;11.460;2024-02-28T02:08:32;5.70;60.10
36322;DHT22;23564;48.290;11.460;2024-02-28T02:10:59;5.60;62.90
36322;DHT22;23564;48.290;11.460;2024-02-28T02:13:24;5.60;64.70
36322;DHT22;23564;48.290;11.460;2024-02-28T02:15:50;5.60;65.40
36322;DHT22;23564;48.290;11.460;2024-02-28T02:18:15;5.60;66.30
36322;DHT22;23564;48.290;11.460;2024-02-28T02:20:44;5.60;67.10
36322;DHT22;23564;48.290;11.460;2024-02-28T02:23:12;5.60;62.60
36322;DHT22;23564;48.290;11.460;2024-02-28T02:25:49;5.60;64.70
36322;DHT22;23564;48.290;11.460;2024-02-28T02:28:14;5.50;65.70
36322;DHT22;23564;48.290;11.460;2024-02-28T02:30:41;5.60;67.50
36322;DHT22;23564;48.290;11.460;2024-02-28T02:33:09;5.50;64.50
36322;DHT22;23564;48.290;11.460;2024-02-28T02:35:35;5.50;66.30
36322;DHT22;23564;48.290;11.460;2024-02-28T02:38:00;5.50;65.50
36322;DHT22;23564;48.290;11.460;2024-02-28T02:40:26;5.50;65.20
36322;DHT22;23564;48.290;11.460;2024-02-28T02:42:51;5.50;66.90
36322;DHT22;23564;48.290;11.460;2024-02-28T02:45:17;5.50;68.60
36322;DHT22;23564;48.290;11.460;2024-02-28T02:47:43;5.40;68.40
36322;DHT22;23564;48.290;11.460;2024-02-28T02:50:10;5.40;70.50
36322;DHT22;23564;48.290;11.460;2024-02-28T02:52:36;5.30;72.60
36322;DHT22;23564;48.290;11.460;2024-02-28T02:55:01;5.40;71.70
36322;DHT22;23564;48.290;11.460;2024-02-28T02:57:27;5.30;67.90
36322;DHT22;23564;48.290;11.460;2024-02-28T02:59:53;5.30;71.90
36322;DHT22;23564;48.290;11.460;2024-02-28T03:02:18;5.20;73.30
36322;DHT22;23564;48.290;11.460;2024-02-28T03:04:44;5.20;71.00
36322;DHT22;23564;48.290;11.460;2024-02-28T03:07:09;5.20;71.50
36322;DHT22;23564;48.290;11.460;2024-02-28T03:09:35;5.10;73.10
36322;DHT22;23564;48.290;11.460;2024-02-28T03:12:00;5.10;74.70
36322;DHT22;23564;48.290;11.460;2024-02-28T03:14:26;5.10;73.10
36322;DHT22;23564;48.290;11.460;2024-02-28T03:16:53;5.00;73.60
36322;DHT22;23564;48.290;11.460;2024-02-28T03:19:18;5.00;76.40
36322;DHT22;23564;48.290;11.460;2024-02-28T03:21:44;5.00;76.50
36322;DHT22;23564;48.290;11.460;2024-02-28T03:24:09;4.90;77.90
36322;DHT22;23564;48.290;11.460;2024-02-28T03:26:35;5.00;79.10
36322;DHT22;23564;48.290;11.460;2024-02-28T03:29:01;5.00;79.80
36322;DHT22;23564;48.290;11.460;2024-02-28T03:31:27;5.00;79.50
36322;DHT22;23564;48.290;11.460;2024-02-28T03:33:52;5.00;79.40
36322;DHT22;23564;48.290;11.460;2024-02-28T03:36:18;5.00;78.10
36322;DHT22;23564;48.290;11.460;2024-02-28T03:38:43;5.00;78.80
36322;DHT22;23564;48.290;11.460;2024-02-28T03:41:09;5.00;75.50
36322;DHT22;23564;48.290;11.460;2024-02-28T03:43:35;5.00;77.50
36322;DHT22;23564;48.290;11.460;2024-02-28T03:46:01;5.00;77.80
36322;DHT22;23564;48.290;11.460;2024-02-28T03:48:26;5.00;75.20
36322;DHT22;23564;48.290;11.460;2024-02-28T03:50:52;5.00;78.50
36322;DHT22;23564;48.290;11.460;2024-02-28T03:53:18;5.10;76.10
36322;DHT22;23564;48.290;11.460;2024-02-28T03:55:43;5.10;76.00
36322;DHT22;23564;48.290;11.460;2024-02-28T03:58:10;5.10;73.30
36322;DHT22;23564;48.290;11.460;2024-02-28T04:00:35;5.10;73.30
36322;DHT22;23564;48.290;11.460;2024-02-28T04:03:02;5.10;73.10
36322;DHT22;23564;48.290;11.460;2024-02-28T04:05:28;5.20;73.40
36322;DHT22;23564;48.290;11.460;2024-02-28T04:07:54;5.20;72.10
36322;DHT22;23564;48.290;11.460;2024-02-28T04:10:19;5.20;70.50
36322;DHT22;23564;48.290;11.460;2024-02-28T04:12:45;5.20;69.60
36322;DHT22;23564;48.290;11.460;2024-02-28T04:15:14;5.20;66.40
36322;DHT22;23564;48.290;11.460;2024-02-28T04:17:40;5.30;66.90
36322;DHT22;23564;48.290;11.460;2024-02-28T04:20:10;5.20;65.70
36322;DHT22;23564;48.290;11.460;2024-02-28T04:22:36;5.30;67.00
36322;DHT22;23564;48.290;11.460;2024-02-28T04:25:03;5.30;67.60
36322;DHT22;23564;48.290;11.460;2024-02-28T04:27:29;5.30;65.90
36322;DHT22;23564;48.290;11.460;2024-02-28T04:29:54;5.30;61.70
36322;DHT22;23564;48.290;11.460;2024-02-28T04:32:20;5.40;57.60
36322;DHT22;23564;48.290;11.460;2024-02-28T04:34:45;5.40;61.10
36322;DHT22;23564;48.290;11.460;2024-02-28T04:37:11;5.40;60.20
36322;DHT22;23564;48.290;11.460;2024-02-28T04:39:36;5.40;59.70
36322;DHT22;23564;48.290;11.460;2024-02-28T04:42:02;5.40;59.90
36322;DHT22;23564;48.290;11.460;2024-02-28T04:44:28;5.50;57.90
36322;DHT22;23564;48.290;11.460;2024-02-28T04:46:53;5.50;57.20
36322;DHT22;23564;48.290;11.460;2024-02-28T04:49:19;5.60;56.10
36322;DHT22;23564;48.290;11.460;2024-02-28T04:51:45;5.60;55.30
36322;DHT22;23564;48.290;11.460;2024-02-28T04:54:10;5.60;54.30
36322;DHT22;23564;48.290;11.460;2024-02-28T04:56:40;5.60;52.30
36322;DHT22;23564;48.290;11.460;2024-02-28T04:59:06;5.60;52.00
36322;DHT22;23564;48.290;11.460;2024-02-28T05:01:32;5.60;49.80
36322;DHT22;23564;48.290;11.460;2024-02-28T05:03:58;5.60;51.50
36322;DHT22;23564;48.290;11.460;2024-02-28T05:06:23;5.60;54.60
36322;DHT22;23564;48.290;11.460;2024-02-28T05:08:49;5.70;53.30
36322;DHT22;23564;48.290;11.460;2024-02-28T05:11:14;5.70;52.90
36322;DHT22;23564;48.290;11.460;2024-02-28T05:13:40;5.70;51.30
36322;DHT22;23564;48.290;11.460;2024-02-28T05:16:12;5.70;50.30
36322;DHT22;23564;48.290;11.460;2024-02-28T05:18:38;5.70;48.40
36322;DHT22;23564;48.290;11.460;2024-02-28T05:21:04;5.70;51.00
36322;DHT22;23564;48.290;11.460;2024-02-28T05:23:29;5.70;50.90
36322;DHT22;23564;48.290;11.460;2024-02-28T05:25:56;5.70;49.60
36322;DHT22;23564;48.290;11.460;2024-02-28T05:28:23;5.70;49.10
36322;DHT22;23564;48.290;11.460;2024-02-28T05:30:48;5.70;48.30
36322;DHT22;23564;48.290;11.460;2024-02-28T05:33:14;5.80;46.90
36322;DHT22;23564;48.290;11.460;2024-02-28T05:35:39;5.70;42.20
36322;DHT22;23564;48.290;11.460;2024-02-28T05:38:05;5.70;46.20
36322;DHT22;23564;48.290;11.460;2024-02-28T05:40:30;5.70;46.50
36322;DHT22;23564;48.290;11.460;2024-02-28T05:42:56;5.70;47.40
36322;DHT22;23564;48.290;11.460;2024-02-28T05:45:21;5.80;47.20
36322;DHT22;23564;48.290;11.460;2024-02-28T05:47:47;5.70;44.40
36322;DHT22;23564;48.290;11.460;2024-02-28T05:50:13;5.60;49.00
36322;DHT22;23564;48.290;11.460;2024-02-28T05:52:41;5.70;50.40
36322;DHT22;23564;48.290;11.460;2024-02-28T05:55:08;5.70;50.80
36322;DHT22;23564;48.290;11.460;2024-02-28T05:57:33;5.70;49.50
36322;DHT22;23564;48.290;11.460;2024-02-28T05:59:59;5.80;49.90
36322;DHT22;23564;48.290;11.460;2024-02-28T06:02:25;5.80;48.90
36322;DHT22;23564;48.290;11.460;2024-02-28T06:04:50;5.80;44.20
36322;DHT22;23564;48.290;11.460;2024-02-28T06:07:16;5.70;44.50
36322;DHT22;23564;48.290;11.460;2024-02-28T06:09:42;5.70;47.80
36322;DHT22;23564;48.290;11.460;2024-02-28T06:12:07;5.70;49.60
36322;DHT22;23564;48.290;11.460;2024-02-28T06:14:33;5.70;47.40
36322;DHT22;23564;48.290;11.460;2024-02-28T06:16:58;5.60;51.40
36322;DHT22;23564;48.290;11.460;2024-02-28T06:19:24;5.60;56.30
36322;DHT22;23564;48.290;11.460;2024-02-28T06:21:49;5.50;55.70
36322;DHT22;23564;48.290;11.460;2024-02-28T06:24:15;5.50;58.00
36322;DHT22;23564;48.290;11.460;2024-02-28T06:26:41;5.50;57.70
36322;DHT22;23564;48.290;11.460;2024-02-28T06:29:08;5.50;59.50
36322;DHT22;23564;48.290;11.460;2024-02-28T06:31:34;5.40;60.70
36322;DHT22;23564;48.290;11.460;2024-02-28T06:33:59;5.40;62.90
36322;DHT22;23564;48.290;11.460;2024-02-28T06:36:25;5.40;62.20
36322;DHT22;23564;48.290;11.460;2024-02-28T06:38:50;5.40;65.20
36322;DHT22;23564;48.290;11.460;2024-02-28T06:41:16;5.40;66.10
36322;DHT22;23564;48.290;11.460;2024-02-28T06:43:42;5.40;66.30
36322;DHT22;23564;48.290;11.460;2024-02-28T06:46:08;5.40;61.90
36322;DHT22;23564;48.290;11.460;2024-02-28T06:48:34;5.40;62.90
36322;DHT22;23564;48.290;11.460;2024-02-28T06:51:00;5.50;59.20
36322;DHT22;23564;48.290;11.460;2024-02-28T06:53:26;5.50;55.60
36322;DHT22;23564;48.290;11.460;2024-02-28T06:55:51;5.50;53.50
36322;DHT22;23564;48.290;11.460;2024-02-28T06:58:17;5.50;50.20
36322;DHT22;23564;48.290;11.460;2024-02-28T07:00:43;5.50;55.50
36322;DHT22;23564;48.290;11.460;2024-02-28T07:03:08;5.50;54.20
36322;DHT22;23564;48.290;11.460;2024-02-28T07:05:34;5.50;52.10
36322;DHT22;23564;48.290;11.460;2024-02-28T07:08:00;5.40;58.20
36322;DHT22;23564;48.290;11.460;2024-02-28T07:10:26;5.50;58.60
36322;DHT22;23564;48.290;11.460;2024-02-28T07:12:51;5.50;56.80
36322;DHT22;23564;48.290;11.460;2024-02-28T07:15:17;5.50;58.50
36322;DHT22;23564;48.290;11.460;2024-02-28T07:17:47;5.50;60.30
36322;DHT22;23564;48.290;11.460;2024-02-28T07:20:12;5.50;62.40
36322;DHT22;23564;48.290;11.460;2024-02-28T07:22:38;5.50;63.50
36322;DHT22;23564;48.290;11.460;2024-02-28T07:25:05;5.60;58.60
36322;DHT22;23564;48.290;11.460;2024-02-28T07:27:31;5.60;59.20
36322;DHT22;23564;48.290;11.460;2024-02-28T07:29:56;5.60;57.20
36322;DHT22;23564;48.290;11.460;2024-02-28T07:32:22;5.60;55.80
36322;DHT22;23564;48.290;11.460;2024-02-28T07:34:48;5.50;57.90
36322;DHT22;23564;48.290;11.460;2024-02-28T07:37:14;5.50;61.80
36322;DHT22;23564;48.290;11.460;2024-02-28T07:39:39;5.50;59.30
36322;DHT22;23564;48.290;11.460;2024-02-28T07:42:05;5.50;60.10
36322;DHT22;23564;48.290;11.460;2024-02-28T07:44:31;5.50;57.90
36322;DHT22;23564;48.290;11.460;2024-02-28T07:46:58;5.60;59.80
36322;DHT22;23564;48.290;11.460;2024-02-28T07:49:24;5.60;60.70
36322;DHT22;23564;48.290;11.460;2024-02-28T07:51:50;5.60;61.50
36322;DHT22;23564;48.290;11.460;2024-02-28T07:54:16;5.60;58.50
36322;DHT22;23564;48.290;11.460;2024-02-28T07:56:44;5.60;59.50
36322;DHT22;23564;48.290;11.460;2024-02-28T07:59:10;5.60;59.50
36322;DHT22;23564;48.290;11.460;2024-02-28T08:01:35;5.50;60.10
36322;DHT22;23564;48.290;11.460;2024-02-28T08:04:05;5.50;62.00
36322;DHT22;23564;48.290;11.460;2024-02-28T08:06:30;5.50;62.90
36322;DHT22;23564;48.290;11.460;2024-02-28T08:08:58;5.50;65.30
36322;DHT22;23564;48.290;11.460;2024-02-28T08:11:24;5.50;65.50
36322;DHT22;23564;48.290;11.460;2024-02-28T08:13:50;5.50;65.90
36322;DHT22;23564;48.290;11.460;2024-02-28T08:16:16;5.50;64.10
36322;DHT22;23564;48.290;11.460;2024-02-28T08:18:41;5.50;68.40
36322;DHT22;23564;48.290;11.460;2024-02-28T08:21:08;5.50;69.10
36322;DHT22;23564;48.290;11.460;2024-02-28T08:23:33;5.50;64.80
36322;DHT22;23564;48.290;11.460;2024-02-28T08:25:59;5.60;62.80
36322;DHT22;23564;48.290;11.460;2024-02-28T08:28:24;5.60;61.40
36322;DHT22;23564;48.290;11.460;2024-02-28T08:30:50;5.60;59.40
36322;DHT22;23564;48.290;11.460;2024-02-28T08:33:16;5.70;53.40
36322;DHT22;23564;48.290;11.460;2024-02-28T08:35:42;5.70;50.10
36322;DHT22;23564;48.290;11.460;2024-02-28T08:38:08;5.80;48.30
36322;DHT22;23564;48.290;11.460;2024-02-28T08:40:34;5.70;50.00
36322;DHT22;23564;48.290;11.460;2024-02-28T08:42:59;5.80;50.90
36322;DHT22;23564;48.290;11.460;2024-02-28T08:45:25;5.80;42.60
36322;DHT22;23564;48.290;11.460;2024-02-28T08:47:50;5.80;43.70
36322;DHT22;23564;48.290;11.460;2024-02-28T08:50:16;5.80;40.60
36322;DHT22;23564;48.290;11.460;2024-02-28T08:52:41;5.80;42.20
36322;DHT22;23564;48.290;11.460;2024-02-28T08:55:07;5.80;42.00
36322;DHT22;23564;48.290;11.460;2024-02-28T08:57:33;5.80;42.80
36322;DHT22;23564;48.290;11.460;2024-02-28T08:59:59;5.90;44.40
36322;DHT22;23564;48.290;11.460;2024-02-28T09:02:25;5.90;37.20
36322;DHT22;23564;48.290;11.460;2024-02-28T09:04:50;6.00;36.50
36322;DHT22;23564;48.290;11.460;2024-02-28T09:07:18;6.10;33.70
36322;DHT22;23564;48.290;11.460;2024-02-28T09:09:47;6.20;31.80
36322;DHT22;23564;48.290;11.460;2024-02-28T09:12:13;6.20;26.80
36322;DHT22;23564;48.290;11.460;2024-02-28T09:14:39;6.20;25.90
36322;DHT22;23564;48.290;11.460;2024-02-28T09:17:05;6.20;18.90
36322;DHT22;23564;48.290;11.460;2024-02-28T09:19:31;6.20;18.80
36322;DHT22;23564;48.290;11.460;2024-02-28T09:21:57;6.30;22.90
36322;DHT22;23564;48.290;11.460;2024-02-28T09:24:24;6.20;21.00
36322;DHT22;23564;48.290;11.460;2024-02-28T09:26:49;6.20;25.40
36322;DHT22;23564;48.290;11.460;2024-02-28T09:29:15;6.20;25.30
36322;DHT22;23564;48.290;11.460;2024-02-28T09:31:40;6.30;25.50
36322;DHT22;23564;48.290;11.460;2024-02-28T09:34:06;6.20;20.50
36322;DHT22;23564;48.290;11.460;2024-02-28T09:36:44;6.20;25.60
36322;DHT22;23564;48.290;11.460;2024-02-28T09:39:13;6.30;28.70
36322;DHT22;23564;48.290;11.460;2024-02-28T09:41:41;6.40;22.80
36322;DHT22;23564;48.290;11.460;2024-02-28T09:44:07;6.50;17.30
36322;DHT22;23564;48.290;11.460;2024-02-28T09:46:34;6.50;14.40
36322;DHT22;23564;48.290;11.460;2024-02-28T09:49:03;6.50;12.70
36322;DHT22;23564;48.290;11.460;2024-02-28T09:51:33;6.60;10.90
36322;DHT22;23564;48.290;11.460;2024-02-28T09:54:03;6.60;8.10
36322;DHT22;23564;48.290;11.460;2024-02-28T09:56:30;6.50;10.20
36322;DHT22;23564;48.290;11.460;2024-02-28T09:58:55;6.50;15.80
36322;DHT22;23564;48.290;11.460;2024-02-28T10:01:25;6.50;18.90
36322;DHT22;23564;48.290;11.460;2024-02-28T10:03:52;6.60;17.70
36322;DHT22;23564;48.290;11.460;2024-02-28T10:06:18;6.60;16.50
36322;DHT22;23564;48.290;11.460;2024-02-28T10:08:44;6.70;12.50
36322;DHT22;23564;48.290;11.460;2024-02-28T10:11:23;6.80;1.00
36322;DHT22;23564;48.290;11.460;2024-02-28T10:13:50;6.80;1.20
36322;DHT22;23564;48.290;11.460;2024-02-28T10:16:15;6.90;1.00
36322;DHT22;23564;48.290;11.460;2024-02-28T10:18:44;6.90;1.00
36322;DHT22;23564;48.290;11.460;2024-02-28T10:21:11;6.90;1.00
36322;DHT22;23564;48.290;11.460;2024-02-28T10:23:41;6.90;1.00
36322;DHT22;23564;48.290;11.460;2024-02-28T10:26:11;6.90;1.00
36322;DHT22;23564;48.290;11.460;2024-02-28T10:28:37;6.80;1.00
36322;DHT22;23564;48.290;11.460;2024-02-28T10:31:04;6.80;1.00
36322;DHT22;23564;48.290;11.460;2024-02-28T10:33:31;6.80;1.00
36322;DHT22;23564;48.290;11.460;2024-02-28T10:35:58;6.80;1.00
36322;DHT22;23564;48.290;11.460;2024-02-28T10:38:26;6.90;1.00
36322;DHT22;23564;48.290;11.460;2024-02-28T10:40:53;6.80;1.00
36322;DHT22;23564;48.290;11.460;2024-02-28T10:43:19;6.90;1.00
36322;DHT22;23564;48.290;11.460;2024-02-28T10:45:45;6.80;1.00
36322;DHT22;23564;48.290;11.460;2024-02-28T10:48:14;6.80;1.00
36322;DHT22;23564;48.290;11.460;2024-02-28T10:50:40;6.70;1.00
36322;DHT22;23564;48.290;11.460;2024-02-28T10:53:13;6.70;1.00
36322;DHT22;23564;48.290;11.460;2024-02-28T10:55:41;6.80;1.00
36322;DHT22;23564;48.290;11.460;2024-02-28T10:58:10;6.80;1.00
36322;DHT22;23564;48.290;11.460;2024-02-28T11:00:37;6.80;1.00
36322;DHT22;23564;48.290;11.460;2024-02-28T11:03:05;6.90;1.00
36322;DHT22;23564;48.290;11.460;2024-02-28T11:05:38;6.90;1.00
36322;DHT22;23564;48.290;11.460;2024-02-28T11:08:09;7.00;1.00
36322;DHT22;23564;48.290;11.460;2024-02-28T11:10:35;7.00;1.00
36322;DHT22;23564;48.290;11.460;2024-02-28T11:13:00;7.00;1.00
36322;DHT22;23564;48.290;11.460;2024-02-28T11:15:26;6.90;1.00
36322;DHT22;23564;48.290;11.460;2024-02-28T11:17:53;6.90;1.00
36322;DHT22;23564;48.290;11.460;2024-02-28T11:20:18;7.00;1.00
36322;DHT22;23564;48.290;11.460;2024-02-28T11:22:44;6.90;1.00
36322;DHT22;23564;48.290;11.460;2024-02-28T11:25:10;6.90;1.00
36322;DHT22;23564;48.290;11.460;2024-02-28T11:27:46;6.90;1.00
36322;DHT22;23564;48.290;11.460;2024-02-28T11:30:13;7.00;1.00
36322;DHT22;23564;48.290;11.460;2024-02-28T11:32:38;7.20;1.00
36322;DHT22;23564;48.290;11.460;2024-02-28T11:35:04;7.50;1.00
36322;DHT22;23564;48.290;11.460;2024-02-28T11:37:31;7.50;1.00
36322;DHT22;23564;48.290;11.460;2024-02-28T11:39:58;7.70;1.00
36322;DHT22;23564;48.290;11.460;2024-02-28T11:42:24;7.80;1.00
36322;DHT22;23564;48.290;11.460;2024-02-28T11:44:55;8.00;1.00
36322;DHT22;23564;48.290;11.460;2024-02-28T11:47:23;8.20;1.00
36322;DHT22;23564;48.290;11.460;2024-02-28T11:49:49;8.40;1.00
36322;DHT22;23564;48.290;11.460;2024-02-28T11:52:14;8.40;99.90
36322;DHT22;23564;48.290;11.460;2024-02-28T11:54:40;8.40;99.90
36322;DHT22;23564;48.290;11.460;2024-02-28T11:57:07;8.30;99.90
36322;DHT22;23564;48.290;11.460;2024-02-28T11:59:33;8.20;99.90
36322;DHT22;23564;48.290;11.460;2024-02-28T12:01:59;8.20;99.90
36322;DHT22;23564;48.290;11.460;2024-02-28T12:04:24;7.90;1.00
36322;DHT22;23564;48.290;11.460;2024-02-28T12:06:53;7.90;1.00
36322;DHT22;23564;48.290;11.460;2024-02-28T12:09:18;7.70;1.00
36322;DHT22;23564;48.290;11.460;2024-02-28T12:11:45;7.80;1.00
36322;DHT22;23564;48.290;11.460;2024-02-28T12:14:12;7.80;1.00
36322;DHT22;23564;48.290;11.460;2024-02-28T12:16:39;7.60;1.00
36322;DHT22;23564;48.290;11.460;2024-02-28T12:19:11;7.60;1.00
36322;DHT22;23564;48.290;11.460;2024-02-28T12:21:38;7.50;1.00
36322;DHT22;23564;48.290;11.460;2024-02-28T12:24:08;7.50;1.00
36322;DHT22;23564;48.290;11.460;2024-02-28T12:26:37;7.50;1.00
36322;DHT22;23564;48.290;11.460;2024-02-28T12:29:04;7.60;1.00
36322;DHT22;23564;48.290;11.460;2024-02-28T12:31:29;7.50;1.00
36322;DHT22;23564;48.290;11.460;2024-02-28T12:33:55;7.60;1.00
36322;DHT22;23564;48.290;11.460;2024-02-28T12:36:21;7.70;1.00
36322;DHT22;23564;48.290;11.460;2024-02-28T12:38:47;7.70;1.00
36322;DHT22;23564;48.290;11.460;2024-02-28T12:41:13;7.70;99.90
36322;DHT22;23564;48.290;11.460;2024-02-28T12:43:39;7.80;1.00
36322;DHT22;23564;48.290;11.460;2024-02-28T12:46:05;7.80;99.90
36322;DHT22;23564;48.290;11.460;2024-02-28T12:48:31;7.80;1.00
36322;DHT22;23564;48.290;11.460;2024-02-28T12:51:01;7.70;1.00
36322;DHT22;23564;48.290;11.460;2024-02-28T12:53:27;7.60;1.00
36322;DHT22;23564;48.290;11.460;2024-02-28T12:55:53;7.60;1.00
36322;DHT22;23564;48.290;11.460;2024-02-28T12:58:18;7.50;1.00
36322;DHT22;23564;48.290;11.460;2024-02-28T13:00:44;7.40;1.00
36322;DHT22;23564;48.290;11.460;2024-02-28T13:03:09;7.40;1.00
36322;DHT22;23564;48.290;11.460;2024-02-28T13:05:35;7.40;1.00
36322;DHT22;23564;48.290;11.460;2024-02-28T13:08:00;7.40;1.00
36322;DHT22;23564;48.290;11.460;2024-02-28T13:10:26;7.50;1.00
36322;DHT22;23564;48.290;11.460;2024-02-28T13:12:51;7.40;1.00
36322;DHT22;23564;48.290;11.460;2024-02-28T13:15:18;7.30;1.00
36322;DHT22;23564;48.290;11.460;2024-02-28T13:17:43;7.30;1.00
36322;DHT22;23564;48.290;11.460;2024-02-28T13:20:11;7.30;1.00
36322;DHT22;23564;48.290;11.460;2024-02-28T13:22:37;7.40;1.00
36322;DHT22;23564;48.290;11.460;2024-02-28T13:25:03;7.50;1.00
36322;DHT22;23564;48.290;11.460;2024-02-28T13:27:28;7.50;1.00
36322;DHT22;23564;48.290;11.460;2024-02-28T13:29:54;7.60;1.00
36322;DHT22;23564;48.290;11.460;2024-02-28T13:32:19;7.60;1.00
36322;DHT22;23564;48.290;11.460;2024-02-28T13:34:45;7.70;1.00
36322;DHT22;23564;48.290;11.460;2024-02-28T13:37:11;7.90;99.90
36322;DHT22;23564;48.290;11.460;2024-02-28T13:39:36;7.90;99.90
36322;DHT22;23564;48.290;11.460;2024-02-28T13:42:02;7.90;99.90
36322;DHT22;23564;48.290;11.460;2024-02-28T13:44:31;8.00;99.90
36322;DHT22;23564;48.290;11.460;2024-02-28T13:46:57;8.10;99.90
36322;DHT22;23564;48.290;11.460;2024-02-28T13:49:22;7.80;99.90
36322;DHT22;23564;48.290;11.460;2024-02-28T13:51:48;7.70;99.90
36322;DHT22;23564;48.290;11.460;2024-02-28T13:54:14;7.70;1.00
36322;DHT22;23564;48.290;11.460;2024-02-28T13:56:40;7.70;99.90
36322;DHT22;23564;48.290;11.460;2024-02-28T13:59:06;7.70;99.90
36322;DHT22;23564;48.290;11.460;2024-02-28T14:01:32;7.80;1.00
36322;DHT22;23564;48.290;11.460;2024-02-28T14:03:58;7.80;99.90
36322;DHT22;23564;48.290;11.460;2024-02-28T14:06:23;7.70;99.90
36322;DHT22;23564;48.290;11.460;2024-02-28T14:08:49;7.70;1.00
36322;DHT22;23564;48.290;11.460;2024-02-28T14:11:16;7.70;1.00
36322;DHT22;23564;48.290;11.460;2024-02-28T14:13:42;7.60;1.00
36322;DHT22;23564;48.290;11.460;2024-02-28T14:16:08;7.50;1.00
36322;DHT22;23564;48.290;11.460;2024-02-28T14:18:34;7.50;99.90
36322;DHT22;23564;48.290;11.460;2024-02-28T14:21:00;7.50;99.90
36322;DHT22;23564;48.290;11.460;2024-02-28T14:23:27;7.50;1.00
36322;DHT22;23564;48.290;11.460;2024-02-28T14:25:53;7.60;1.00
36322;DHT22;23564;48.290;11.460;2024-02-28T14:28:18;7.50;1.00
36322;DHT22;23564;48.290;11.460;2024-02-28T14:30:44;7.60;1.00
36322;DHT22;23564;48.290;11.460;2024-02-28T14:33:11;7.60;1.00
36322;DHT22;23564;48.290;11.460;2024-02-28T14:35:37;7.50;1.00
36322;DHT22;23564;48.290;11.460;2024-02-28T14:38:04;7.50;1.00
36322;DHT22;23564;48.290;11.460;2024-02-28T14:40:30;7.60;1.00
36322;DHT22;23564;48.290;11.460;2024-02-28T14:42:55;7.50;1.00
36322;DHT22;23564;48.290;11.460;2024-02-28T14:45:22;7.60;1.00
36322;DHT22;23564;48.290;11.460;2024-02-28T14:47:49;7.60;1.00
36322;DHT22;23564;48.290;11.460;2024-02-28T14:50:15;7.60;1.00
36322;DHT22;23564;48.290;11.460;2024-02-28T14:52:41;7.60;99.90
36322;DHT22;23564;48.290;11.460;2024-02-28T14:55:08;7.60;99.90
36322;DHT22;23564;48.290;11.460;2024-02-28T14:57:37;7.50;99.90
36322;DHT22;23564;48.290;11.460;2024-02-28T15:00:04;7.50;1.00
36322;DHT22;23564;48.290;11.460;2024-02-28T15:02:40;7.50;1.00
36322;DHT22;23564;48.290;11.460;2024-02-28T15:05:06;7.40;1.00
36322;DHT22;23564;48.290;11.460;2024-02-28T15:07:32;7.40;1.00
36322;DHT22;23564;48.290;11.460;2024-02-28T15:09:58;7.50;1.00
36322;DHT22;23564;48.290;11.460;2024-02-28T15:12:29;7.50;1.00
36322;DHT22;23564;48.290;11.460;2024-02-28T15:15:04;7.50;1.00
36322;DHT22;23564;48.290;11.460;2024-02-28T15:17:30;7.50;1.00
36322;DHT22;23564;48.290;11.460;2024-02-28T15:19:56;7.50;1.00
36322;DHT22;23564;48.290;11.460;2024-02-28T15:22:22;7.50;1.00
36322;DHT22;23564;48.290;11.460;2024-02-28T15:24:48;7.40;1.00
36322;DHT22;23564;48.290;11.460;2024-02-28T15:27:13;7.30;1.00
36322;DHT22;23564;48.290;11.460;2024-02-28T15:29:39;7.20;1.00